LPE26X SPZO-SPJC
Flight info
| Callsign | LPE26X |
|---|---|
| Flight time | N/A |
| Altitude | 30000 |
| Route | GAXUN UT321 UDENI UT332 PEROV |
| Aircraft | A20N/M-SDE2E3FGHIRWXY/LB1 |
Departure
| Time | 2026-05-08 02:35 |
|---|---|
| Airport | Alejandro Velasco Astete International Airport (SPZO) |
Arrival
| Time | N/A |
|---|---|
| Airport | Jorge Chávez International Airport (SPJC) |
| Time | Latitude | Longitude | Altitude | Speed | Heading |
|---|---|---|---|---|---|
| 2026-05-08 02:15 | -13.53696 | -71.94491 | 10837 ft | 0 kts | 254° |
| 2026-05-08 02:23 | -13.53696 | -71.94490 | 10837 ft | 0 kts | 254° |
| 2026-05-08 02:24 | -13.53693 | -71.94479 | 10836 ft | 2 kts | 254° |
| 2026-05-08 02:24 | -13.53688 | -71.94464 | 10835 ft | 2 kts | 253° |
| 2026-05-08 02:24 | -13.53682 | -71.94450 | 10834 ft | 2 kts | 232° |
| 2026-05-08 02:24 | -13.53671 | -71.94439 | 10834 ft | 2 kts | 227° |
| 2026-05-08 02:25 | -13.53664 | -71.94425 | 10833 ft | 2 kts | 256° |
| 2026-05-08 02:25 | -13.53663 | -71.94411 | 10832 ft | 0 kts | 274° |
| 2026-05-08 02:25 | -13.53664 | -71.94405 | 10832 ft | 1 kts | 278° |
| 2026-05-08 02:25 | -13.53664 | -71.94403 | 10831 ft | 0 kts | 278° |
| 2026-05-08 02:26 | -13.53664 | -71.94404 | 10831 ft | 0 kts | 278° |
| 2026-05-08 02:29 | -13.53664 | -71.94400 | 10831 ft | 1 kts | 279° |
| 2026-05-08 02:29 | -13.53664 | -71.94405 | 10831 ft | 3 kts | 276° |
| 2026-05-08 02:30 | -13.53663 | -71.94411 | 10832 ft | 0 kts | 274° |
| 2026-05-08 02:30 | -13.53663 | -71.94421 | 10832 ft | 8 kts | 272° |
| 2026-05-08 02:30 | -13.53659 | -71.94479 | 10835 ft | 12 kts | 280° |
| 2026-05-08 02:30 | -13.53636 | -71.94618 | 10843 ft | 20 kts | 280° |
| 2026-05-08 02:31 | -13.53625 | -71.94759 | 10851 ft | 16 kts | 274° |
| 2026-05-08 02:31 | -13.53614 | -71.94857 | 10856 ft | 11 kts | 275° |
| 2026-05-08 02:31 | -13.53607 | -71.94930 | 10861 ft | 10 kts | 275° |
| 2026-05-08 02:31 | -13.53595 | -71.95038 | 10868 ft | 19 kts | 277° |
| 2026-05-08 02:32 | -13.53578 | -71.95194 | 10881 ft | 24 kts | 276° |
| 2026-05-08 02:32 | -13.53559 | -71.95378 | 10891 ft | 22 kts | 275° |
| 2026-05-08 02:32 | -13.53488 | -71.95443 | 10892 ft | 3 kts | 12° |
| 2026-05-08 02:32 | -13.53486 | -71.95442 | 10892 ft | 0 kts | 12° |
| 2026-05-08 02:33 | -13.53485 | -71.95442 | 10892 ft | 1 kts | 12° |
| 2026-05-08 02:33 | -13.53459 | -71.95432 | 10890 ft | 7 kts | 29° |
| 2026-05-08 02:34 | -13.53423 | -71.95377 | 10885 ft | 10 kts | 101° |
| 2026-05-08 02:34 | -13.53427 | -71.95294 | 10880 ft | 18 kts | 93° |
| 2026-05-08 02:34 | -13.53470 | -71.94873 | 10855 ft | 102 kts | 95° |
| 2026-05-08 02:34 | -13.53571 | -71.93881 | 10809 ft | 174 kts | 95° |
| 2026-05-08 02:35 | -13.53704 | -71.92509 | 11169 ft | 202 kts | 95° |
| 2026-05-08 02:35 | -13.53828 | -71.91056 | 11848 ft | 208 kts | 94° |
| 2026-05-08 02:35 | -13.53973 | -71.89598 | 12546 ft | 211 kts | 100° |
| 2026-05-08 02:35 | -13.54413 | -71.88161 | 13251 ft | 213 kts | 111° |
| 2026-05-08 02:36 | -13.54890 | -71.86718 | 13890 ft | 220 kts | 101° |
| 2026-05-08 02:36 | -13.55150 | -71.85134 | 14332 ft | 233 kts | 96° |
| 2026-05-08 02:36 | -13.55364 | -71.83410 | 14668 ft | 251 kts | 95° |
| 2026-05-08 02:36 | -13.55583 | -71.81553 | 14921 ft | 274 kts | 95° |
| 2026-05-08 02:37 | -13.55813 | -71.79552 | 15336 ft | 291 kts | 95° |
| 2026-05-08 02:37 | -13.56075 | -71.77456 | 15938 ft | 300 kts | 98° |
| 2026-05-08 02:37 | -13.56457 | -71.75315 | 16412 ft | 314 kts | 99° |
| 2026-05-08 02:37 | -13.56901 | -71.73052 | 16745 ft | 331 kts | 100° |
| 2026-05-08 02:38 | -13.57201 | -71.70670 | 17021 ft | 347 kts | 86° |
| 2026-05-08 02:38 | -13.56539 | -71.68263 | 17406 ft | 356 kts | 59° |
| 2026-05-08 02:38 | -13.54902 | -71.66426 | 18205 ft | 350 kts | 34° |
| 2026-05-08 02:38 | -13.52692 | -71.65517 | 19140 ft | 341 kts | 9° |
| 2026-05-08 02:39 | -13.50337 | -71.65437 | 19900 ft | 338 kts | 0° |
| 2026-05-08 02:39 | -13.47957 | -71.65472 | 20339 ft | 348 kts | 0° |
| 2026-05-08 02:39 | -13.45486 | -71.65608 | 20570 ft | 365 kts | 351° |
| 2026-05-08 02:39 | -13.43005 | -71.66377 | 20835 ft | 380 kts | 337° |
| 2026-05-08 02:40 | -13.40681 | -71.67707 | 21275 ft | 389 kts | 326° |
| 2026-05-08 02:40 | -13.38634 | -71.69536 | 21830 ft | 395 kts | 313° |
| 2026-05-08 02:40 | -13.37004 | -71.71825 | 22439 ft | 398 kts | 299° |
| 2026-05-08 02:40 | -13.35954 | -71.74435 | 23347 ft | 392 kts | 286° |
| 2026-05-08 02:41 | -13.35295 | -71.77103 | 24193 ft | 388 kts | 284° |
| 2026-05-08 02:41 | -13.34654 | -71.79842 | 24549 ft | 400 kts | 284° |
| 2026-05-08 02:41 | -13.33993 | -71.82627 | 24986 ft | 407 kts | 285° |
| 2026-05-08 02:41 | -13.33313 | -71.85449 | 25607 ft | 409 kts | 285° |
| 2026-05-08 02:42 | -13.32626 | -71.88261 | 26260 ft | 409 kts | 285° |
| 2026-05-08 02:42 | -13.31923 | -71.91116 | 26887 ft | 410 kts | 285° |
| 2026-05-08 02:42 | -13.31222 | -71.93948 | 27477 ft | 412 kts | 286° |
| 2026-05-08 02:42 | -13.30506 | -71.96825 | 28071 ft | 413 kts | 286° |
| 2026-05-08 02:43 | -13.29801 | -71.99661 | 28676 ft | 413 kts | 286° |
| 2026-05-08 02:43 | -13.29088 | -72.02522 | 29284 ft | 413 kts | 286° |
| 2026-05-08 02:43 | -13.28377 | -72.05370 | 29771 ft | 415 kts | 286° |
| 2026-05-08 02:43 | -13.27661 | -72.08243 | 30231 ft | 417 kts | 286° |
| 2026-05-08 02:44 | -13.26934 | -72.11151 | 30641 ft | 419 kts | 286° |
| 2026-05-08 02:44 | -13.26211 | -72.14040 | 30746 ft | 419 kts | 286° |
| 2026-05-08 02:44 | -13.24763 | -72.19825 | 30755 ft | 419 kts | 286° |
| 2026-05-08 02:45 | -13.23307 | -72.25637 | 30730 ft | 419 kts | 286° |
| 2026-05-08 02:45 | -13.21866 | -72.31412 | 30717 ft | 420 kts | 286° |
| 2026-05-08 02:46 | -13.20415 | -72.37219 | 30697 ft | 420 kts | 286° |
| 2026-05-08 02:46 | -13.18968 | -72.42991 | 30683 ft | 420 kts | 286° |
| 2026-05-08 02:47 | -13.17508 | -72.48806 | 30664 ft | 419 kts | 287° |
| 2026-05-08 02:47 | -13.16057 | -72.54574 | 30661 ft | 420 kts | 286° |
| 2026-05-08 02:48 | -13.14594 | -72.60388 | 30652 ft | 420 kts | 286° |
| 2026-05-08 02:48 | -13.13133 | -72.66182 | 30633 ft | 421 kts | 286° |
| 2026-05-08 02:49 | -13.11681 | -72.71963 | 30620 ft | 420 kts | 287° |
| 2026-05-08 02:49 | -13.10223 | -72.77740 | 30611 ft | 421 kts | 286° |
| 2026-05-08 02:50 | -13.08854 | -72.83589 | 30613 ft | 421 kts | 285° |
| 2026-05-08 02:50 | -13.07547 | -72.89432 | 30613 ft | 420 kts | 285° |
| 2026-05-08 02:51 | -13.06230 | -72.95256 | 30616 ft | 421 kts | 285° |
| 2026-05-08 02:51 | -13.04896 | -73.01125 | 30624 ft | 421 kts | 285° |
| 2026-05-08 02:52 | -13.03566 | -73.06962 | 30617 ft | 421 kts | 285° |
| 2026-05-08 02:52 | -13.02234 | -73.12781 | 30641 ft | 422 kts | 285° |
| 2026-05-08 02:53 | -13.00895 | -73.18635 | 30665 ft | 421 kts | 285° |
| 2026-05-08 02:53 | -12.99560 | -73.24459 | 30686 ft | 421 kts | 285° |
| 2026-05-08 02:54 | -12.98222 | -73.30295 | 30675 ft | 421 kts | 285° |
| 2026-05-08 02:54 | -12.96881 | -73.36131 | 30619 ft | 421 kts | 285° |
| 2026-05-08 02:55 | -12.94880 | -73.44834 | 30601 ft | 421 kts | 285° |
| 2026-05-08 02:56 | -12.93531 | -73.50695 | 30554 ft | 421 kts | 285° |
| 2026-05-08 02:56 | -12.92191 | -73.56503 | 30555 ft | 422 kts | 285° |
| 2026-05-08 02:57 | -12.90842 | -73.62346 | 30572 ft | 422 kts | 285° |
| 2026-05-08 02:57 | -12.89485 | -73.68213 | 30567 ft | 422 kts | 285° |
| 2026-05-08 02:58 | -12.88115 | -73.74045 | 30569 ft | 422 kts | 285° |
| 2026-05-08 02:58 | -12.86754 | -73.79881 | 30586 ft | 422 kts | 285° |
| 2026-05-08 02:59 | -12.85396 | -73.85724 | 30584 ft | 422 kts | 285° |
| 2026-05-08 02:59 | -12.84040 | -73.91563 | 30592 ft | 421 kts | 285° |
| 2026-05-08 03:00 | -12.82693 | -73.97363 | 30616 ft | 421 kts | 285° |
| 2026-05-08 03:00 | -12.81337 | -74.03197 | 30643 ft | 422 kts | 285° |
| 2026-05-08 03:01 | -12.79973 | -74.09061 | 30646 ft | 423 kts | 285° |
| 2026-05-08 03:01 | -12.78609 | -74.14919 | 30676 ft | 422 kts | 285° |
| 2026-05-08 03:02 | -12.77240 | -74.20788 | 30724 ft | 422 kts | 285° |
| 2026-05-08 03:02 | -12.75886 | -74.26585 | 30772 ft | 422 kts | 285° |
| 2026-05-08 03:03 | -12.74521 | -74.32424 | 30777 ft | 421 kts | 284° |
| 2026-05-08 03:03 | -12.73153 | -74.38275 | 30788 ft | 421 kts | 284° |
| 2026-05-08 03:04 | -12.71793 | -74.44089 | 30766 ft | 422 kts | 284° |
| 2026-05-08 03:04 | -12.70422 | -74.49944 | 30755 ft | 422 kts | 284° |
| 2026-05-08 03:05 | -12.69056 | -74.55763 | 30756 ft | 421 kts | 284° |
| 2026-05-08 03:05 | -12.67683 | -74.61604 | 30790 ft | 422 kts | 284° |
| 2026-05-08 03:06 | -12.66319 | -74.67408 | 30843 ft | 422 kts | 284° |
| 2026-05-08 03:06 | -12.64950 | -74.73247 | 30863 ft | 422 kts | 284° |
| 2026-05-08 03:07 | -12.63578 | -74.79087 | 30898 ft | 421 kts | 284° |
| 2026-05-08 03:07 | -12.62211 | -74.84888 | 30900 ft | 421 kts | 284° |
| 2026-05-08 03:08 | -12.60838 | -74.90702 | 30916 ft | 422 kts | 284° |
| 2026-05-08 03:08 | -12.59462 | -74.96519 | 30915 ft | 422 kts | 284° |
| 2026-05-08 03:09 | -12.58083 | -75.02345 | 30921 ft | 421 kts | 284° |
| 2026-05-08 03:09 | -12.56701 | -75.08178 | 30909 ft | 421 kts | 284° |
| 2026-05-08 03:10 | -12.55323 | -75.13992 | 30905 ft | 421 kts | 284° |
| 2026-05-08 03:10 | -12.53942 | -75.19804 | 30892 ft | 421 kts | 284° |
| 2026-05-08 03:11 | -12.52552 | -75.25647 | 30874 ft | 421 kts | 284° |
| 2026-05-08 03:11 | -12.51206 | -75.31448 | 30874 ft | 421 kts | 284° |
| 2026-05-08 03:12 | -12.49891 | -75.37282 | 30881 ft | 422 kts | 284° |
| 2026-05-08 03:12 | -12.48571 | -75.43108 | 30890 ft | 422 kts | 283° |
| 2026-05-08 03:13 | -12.47243 | -75.48955 | 30906 ft | 421 kts | 283° |
| 2026-05-08 03:13 | -12.45917 | -75.54775 | 30905 ft | 421 kts | 283° |
| 2026-05-08 03:14 | -12.44587 | -75.60608 | 30907 ft | 421 kts | 283° |
| 2026-05-08 03:14 | -12.43256 | -75.66439 | 30902 ft | 421 kts | 283° |
| 2026-05-08 03:15 | -12.41945 | -75.72205 | 30889 ft | 403 kts | 284° |
| 2026-05-08 03:15 | -12.41326 | -75.74922 | 30881 ft | 387 kts | 284° |
| 2026-05-08 03:15 | -12.40727 | -75.77543 | 30879 ft | 370 kts | 284° |
| 2026-05-08 03:15 | -12.40155 | -75.80042 | 30878 ft | 355 kts | 283° |
| 2026-05-08 03:16 | -12.39598 | -75.82472 | 30737 ft | 344 kts | 284° |
| 2026-05-08 03:16 | -12.39061 | -75.84817 | 30558 ft | 334 kts | 284° |
| 2026-05-08 03:16 | -12.38542 | -75.87077 | 30379 ft | 325 kts | 284° |
| 2026-05-08 03:16 | -12.38029 | -75.89314 | 30121 ft | 318 kts | 284° |
| 2026-05-08 03:17 | -12.37525 | -75.91501 | 29753 ft | 315 kts | 284° |
| 2026-05-08 03:17 | -12.37031 | -75.93646 | 29376 ft | 313 kts | 284° |
| 2026-05-08 03:17 | -12.36530 | -75.95818 | 28974 ft | 311 kts | 284° |
| 2026-05-08 03:17 | -12.36040 | -75.97945 | 28594 ft | 309 kts | 284° |
| 2026-05-08 03:18 | -12.35552 | -76.00071 | 28211 ft | 307 kts | 284° |
| 2026-05-08 03:18 | -12.35068 | -76.02174 | 27821 ft | 306 kts | 284° |
| 2026-05-08 03:18 | -12.34581 | -76.04300 | 27411 ft | 305 kts | 283° |
| 2026-05-08 03:18 | -12.34125 | -76.06401 | 27020 ft | 304 kts | 283° |
| 2026-05-08 03:19 | -12.33678 | -76.08488 | 26616 ft | 303 kts | 283° |
| 2026-05-08 03:19 | -12.33225 | -76.10604 | 26204 ft | 303 kts | 283° |
| 2026-05-08 03:19 | -12.32772 | -76.12711 | 25802 ft | 302 kts | 283° |
| 2026-05-08 03:19 | -12.32324 | -76.14784 | 25402 ft | 302 kts | 283° |
| 2026-05-08 03:20 | -12.31867 | -76.16899 | 24992 ft | 302 kts | 283° |
| 2026-05-08 03:20 | -12.31420 | -76.18971 | 24620 ft | 301 kts | 283° |
| 2026-05-08 03:20 | -12.30968 | -76.21056 | 24236 ft | 301 kts | 283° |
| 2026-05-08 03:20 | -12.30518 | -76.23137 | 23838 ft | 301 kts | 283° |
| 2026-05-08 03:21 | -12.30068 | -76.25221 | 23438 ft | 301 kts | 283° |
| 2026-05-08 03:21 | -12.29619 | -76.27313 | 23051 ft | 301 kts | 283° |
| 2026-05-08 03:21 | -12.29172 | -76.29394 | 22687 ft | 300 kts | 282° |
| 2026-05-08 03:21 | -12.28723 | -76.31487 | 22316 ft | 300 kts | 282° |
| 2026-05-08 03:22 | -12.28278 | -76.33560 | 21964 ft | 299 kts | 282° |
| 2026-05-08 03:22 | -12.27837 | -76.35615 | 21627 ft | 297 kts | 283° |
| 2026-05-08 03:22 | -12.27396 | -76.37663 | 21311 ft | 295 kts | 283° |
| 2026-05-08 03:22 | -12.26950 | -76.39728 | 20983 ft | 294 kts | 283° |
| 2026-05-08 03:23 | -12.26513 | -76.41758 | 20669 ft | 292 kts | 283° |
| 2026-05-08 03:23 | -12.26078 | -76.43776 | 20351 ft | 290 kts | 283° |
| 2026-05-08 03:23 | -12.25650 | -76.45764 | 20041 ft | 288 kts | 283° |
| 2026-05-08 03:23 | -12.25222 | -76.47749 | 19742 ft | 286 kts | 283° |
| 2026-05-08 03:24 | -12.24792 | -76.49739 | 19406 ft | 284 kts | 283° |
| 2026-05-08 03:24 | -12.24372 | -76.51676 | 19109 ft | 282 kts | 283° |
| 2026-05-08 03:24 | -12.23945 | -76.53647 | 18786 ft | 280 kts | 283° |
| 2026-05-08 03:24 | -12.23528 | -76.55571 | 18481 ft | 279 kts | 283° |
| 2026-05-08 03:25 | -12.23112 | -76.57486 | 18171 ft | 278 kts | 283° |
| 2026-05-08 03:25 | -12.22693 | -76.59420 | 17840 ft | 276 kts | 283° |
| 2026-05-08 03:25 | -12.22282 | -76.61316 | 17527 ft | 275 kts | 283° |
| 2026-05-08 03:25 | -12.21869 | -76.63218 | 17206 ft | 273 kts | 283° |
| 2026-05-08 03:26 | -12.21456 | -76.65118 | 16909 ft | 272 kts | 284° |
| 2026-05-08 03:26 | -12.21052 | -76.66982 | 16612 ft | 270 kts | 284° |
| 2026-05-08 03:26 | -12.20644 | -76.68864 | 16316 ft | 269 kts | 284° |
| 2026-05-08 03:26 | -12.20239 | -76.70720 | 15987 ft | 268 kts | 284° |
| 2026-05-08 03:27 | -12.19833 | -76.72582 | 15642 ft | 267 kts | 284° |
| 2026-05-08 03:27 | -12.19430 | -76.74425 | 15370 ft | 266 kts | 284° |
| 2026-05-08 03:27 | -12.19027 | -76.76262 | 15119 ft | 265 kts | 284° |
| 2026-05-08 03:27 | -12.18623 | -76.78097 | 14813 ft | 264 kts | 284° |
| 2026-05-08 03:28 | -12.18223 | -76.79920 | 14514 ft | 263 kts | 284° |
| 2026-05-08 03:28 | -12.17823 | -76.81742 | 14123 ft | 266 kts | 284° |
| 2026-05-08 03:28 | -12.17417 | -76.83590 | 13807 ft | 266 kts | 284° |
| 2026-05-08 03:28 | -12.17010 | -76.85432 | 13483 ft | 267 kts | 284° |
| 2026-05-08 03:29 | -12.16600 | -76.87296 | 13183 ft | 267 kts | 284° |
| 2026-05-08 03:29 | -12.16194 | -76.89142 | 12867 ft | 270 kts | 284° |
| 2026-05-08 03:29 | -12.15781 | -76.91024 | 12471 ft | 270 kts | 284° |
| 2026-05-08 03:29 | -12.15374 | -76.92875 | 12162 ft | 267 kts | 284° |